Time;durP1;ratioP1;P1;durP2;ratioP2;P2;SDS_P1;SDS_P2;PMS_P1;PMS_P2;Temp;Humidity;BMP_temperature;BMP_pressure;BME280_temperature;BME280_humidity;BME280_pressure;Samples;Min_cycle;Max_cycle;Signal;HPM_P1;HPM_P2
2023/04/01 00:00:33;;;;;;;;;9.00;9.00;;;;;;;;5085432;29;8815;-65
2023/04/01 00:03:04;;;;;;;;;13.20;13.20;;;;;;;;5068456;29;8826;-66
2023/04/01 00:05:35;;;;;;;;;10.80;10.80;;;;;;;;5052463;29;8843;-66
2023/04/01 00:08:06;;;;;;;;;12.50;12.00;;;;;;;;5085029;29;8803;-66
2023/04/01 00:10:37;;;;;;;;;19.50;19.50;;;;;;;;5068252;29;10529;-66
2023/04/01 00:13:08;;;;;;;;;13.50;13.50;;;;;;;;5068191;29;11576;-66
2023/04/01 00:15:39;;;;;;;;;8.00;7.80;;;;;;;;5085015;29;11561;-66
2023/04/01 00:18:10;;;;;;;;;9.80;9.80;;;;;;;;5037037;29;9549;-66
2023/04/01 00:20:46;;;;;;;;;16.20;12.60;;;;;;;;5067903;29;8822;-66
2023/04/01 00:23:18;;;;;;;;;11.00;11.00;;;;;;;;5068034;29;8897;-65
2023/04/01 00:25:49;;;;;;;;;10.80;10.80;;;;;;;;5068073;29;8869;-66
2023/04/01 00:28:20;;;;;;;;;11.00;11.00;;;;;;;;5067531;29;8898;-65
2023/04/01 00:30:51;;;;;;;;;10.00;10.00;;;;;;;;5052121;29;8819;-65
2023/04/01 00:33:41;;;;;;;;;14.00;13.60;;;;;;;;5084692;29;8859;-65
2023/04/01 00:36:13;;;;;;;;;13.40;11.60;;;;;;;;5052087;29;8819;-66
2023/04/01 00:38:44;;;;;;;;;8.20;8.20;;;;;;;;5084770;29;8803;-66
2023/04/01 00:41:16;;;;;;;;;11.00;11.00;;;;;;;;5067662;29;8799;-66
2023/04/01 00:43:48;;;;;;;;;8.40;8.40;;;;;;;;5051964;29;8807;-66
2023/04/01 00:46:19;;;;;;;;;8.80;8.00;;;;;;;;5067689;29;8831;-66
2023/04/01 00:48:53;;;;;;;;;30.20;30.20;;;;;;;;5036469;29;8868;-66
2023/04/01 00:51:26;;;;;;;;;28.20;28.20;;;;;;;;5066387;29;8803;-66
2023/04/01 00:54:18;;;;;;;;;16.60;15.20;;;;;;;;5045809;29;8934;-67
2023/04/01 00:57:00;;;;;;;;;13.00;13.00;;;;;;;;5024393;29;8846;-68
2023/04/01 00:59:33;;;;;;;;;35.40;31.60;;;;;;;;5032822;29;8909;-67
2023/04/01 01:02:07;;;;;;;;;28.40;28.00;;;;;;;;5032975;29;8837;-68
2023/04/01 01:04:38;;;;;;;;;22.80;22.00;;;;;;;;5048001;29;8782;-67
2023/04/01 01:07:12;;;;;;;;;21.40;21.40;;;;;;;;5048417;29;8832;-68
2023/04/01 01:10:02;;;;;;;;;21.00;19.60;;;;;;;;5032676;29;8816;-67
2023/04/01 01:12:37;;;;;;;;;20.40;19.80;;;;;;;;5048452;29;8816;-68
2023/04/01 01:15:39;;;;;;;;;11.20;11.20;;;;;;;;5065430;29;8829;-68
2023/04/01 01:18:27;;;;;;;;;15.80;15.80;;;;;;;;5048217;29;8786;-67
2023/04/01 01:20:58;;;;;;;;;12.60;12.60;;;;;;;;5064870;29;8825;-67
2023/04/01 01:23:46;;;;;;;;;18.00;17.00;;;;;;;;5032914;29;8951;-67
2023/04/01 01:26:40;;;;;;;;;15.20;15.20;;;;;;;;5047948;29;11496;-67
2023/04/01 01:29:18;;;;;;;;;13.40;13.40;;;;;;;;5032486;29;8782;-68
2023/04/01 01:31:52;;;;;;;;;11.00;11.00;;;;;;;;5050398;29;8790;-68
2023/04/01 01:34:36;;;;;;;;;13.00;13.00;;;;;;;;5035958;29;8805;-68
2023/04/01 01:37:27;;;;;;;;;12.40;10.60;;;;;;;;5068244;29;8813;-68
2023/04/01 01:40:01;;;;;;;;;15.00;15.00;;;;;;;;5035950;29;8782;-68
2023/04/01 01:42:37;;;;;;;;;16.40;15.60;;;;;;;;5051723;29;9547;-68
2023/04/01 01:45:10;;;;;;;;;12.60;12.60;;;;;;;;5051356;29;8944;-67
2023/04/01 01:47:42;;;;;;;;;15.00;14.80;;;;;;;;5035760;29;8873;-68
2023/04/01 01:50:15;;;;;;;;;16.20;16.00;;;;;;;;5035622;29;8790;-68
2023/04/01 01:53:10;;;;;;;;;11.00;10.60;;;;;;;;5051051;29;8876;-67
2023/04/01 01:55:42;;;;;;;;;11.40;11.40;;;;;;;;5035758;29;8930;-67
2023/04/01 01:58:13;;;;;;;;;9.20;9.20;;;;;;;;5067915;29;8794;-67
2023/04/01 02:00:53;;;;;;;;;7.80;7.80;;;;;;;;5020446;29;8904;-67
2023/04/01 02:03:26;;;;;;;;;11.00;11.00;;;;;;;;5051134;29;9025;-67
2023/04/01 02:06:00;;;;;;;;;12.00;12.00;;;;;;;;5035314;29;8830;-67
2023/04/01 02:09:07;;;;;;;;;12.00;12.00;;;;;;;;5053089;29;8814;-67
2023/04/01 02:11:45;;;;;;;;;9.80;8.20;;;;;;;;5035599;29;8778;-67
2023/04/01 02:14:31;;;;;;;;;10.80;10.20;;;;;;;;5051091;29;8996;-67
2023/04/01 02:17:07;;;;;;;;;7.80;7.80;;;;;;;;5050739;29;8806;-67
2023/04/01 02:19:41;;;;;;;;;6.40;6.40;;;;;;;;5050785;29;8909;-67
2023/04/01 02:22:14;;;;;;;;;6.60;6.60;;;;;;;;5051137;29;8888;-68
2023/04/01 02:24:46;;;;;;;;;7.20;7.20;;;;;;;;5019855;29;8801;-67
2023/04/01 02:27:17;;;;;;;;;10.00;10.00;;;;;;;;5050598;29;8794;-67
2023/04/01 02:29:48;;;;;;;;;9.80;9.80;;;;;;;;5050613;29;8785;-67
2023/04/01 02:32:20;;;;;;;;;11.00;10.40;;;;;;;;5049909;29;8865;-67
2023/04/01 02:34:51;;;;;;;;;5.80;5.80;;;;;;;;5066384;29;8801;-67
2023/04/01 02:37:25;;;;;;;;;8.40;8.20;;;;;;;;5050313;29;8774;-68
2023/04/01 02:40:01;;;;;;;;;13.20;12.20;;;;;;;;5050168;29;8798;-67
2023/04/01 02:42:34;;;;;;;;;8.20;8.20;;;;;;;;5065924;29;8790;-67
2023/04/01 02:45:05;;;;;;;;;11.20;11.20;;;;;;;;5046405;29;8836;-67
2023/04/01 02:47:36;;;;;;;;;14.40;14.00;;;;;;;;5048908;29;8828;-67
2023/04/01 02:50:08;;;;;;;;;10.80;10.80;;;;;;;;5048773;29;8820;-67
2023/04/01 02:52:39;;;;;;;;;8.40;8.00;;;;;;;;5066769;29;8833;-67
2023/04/01 02:55:28;;;;;;;;;1.00;1.00;;;;;;;;5065947;29;9573;-67
2023/04/01 02:57:59;;;;;;;;;10.80;10.80;;;;;;;;5060714;29;9545;-67
2023/04/01 03:00:32;;;;;;;;;10.60;10.60;;;;;;;;5034504;29;8818;-67
2023/04/01 03:03:21;;;;;;;;;11.00;11.00;;;;;;;;5049631;29;8778;-68
2023/04/01 03:05:55;;;;;;;;;39.60;32.80;;;;;;;;5049600;29;8830;-67
2023/04/01 03:08:26;;;;;;;;;11.80;11.80;;;;;;;;5048912;29;8802;-68
2023/04/01 03:10:57;;;;;;;;;11.40;11.40;;;;;;;;5041030;29;8816;-68
2023/04/01 03:13:28;;;;;;;;;12.00;11.40;;;;;;;;5034222;29;8813;-67
2023/04/01 03:16:17;;;;;;;;;12.00;12.00;;;;;;;;5052154;29;8806;-68
2023/04/01 03:18:50;;;;;;;;;3.60;3.60;;;;;;;;5062808;29;8845;-67
2023/04/01 03:21:23;;;;;;;;;14.00;12.40;;;;;;;;5045792;29;9562;-67
2023/04/01 03:23:54;;;;;;;;;11.20;10.80;;;;;;;;5033216;29;8837;-67
2023/04/01 03:26:26;;;;;;;;;8.60;8.40;;;;;;;;5049363;29;8936;-68
2023/04/01 03:28:59;;;;;;;;;16.40;16.40;;;;;;;;5049507;29;9522;-67
2023/04/01 03:31:30;;;;;;;;;11.00;11.00;;;;;;;;5049403;29;8807;-67
2023/04/01 03:34:02;;;;;;;;;12.00;12.00;;;;;;;;5049338;29;8782;-66
2023/04/01 03:36:33;;;;;;;;;13.40;13.00;;;;;;;;5048779;29;9505;-66
2023/04/01 03:39:04;;;;;;;;;11.00;11.00;;;;;;;;5033495;29;8826;-66
2023/04/01 03:41:44;;;;;;;;;10.40;10.40;;;;;;;;5049423;29;8781;-66
2023/04/01 03:44:15;;;;;;;;;11.60;11.40;;;;;;;;5048192;29;8802;-67
2023/04/01 03:46:47;;;;;;;;;8.40;8.00;;;;;;;;5033086;29;8822;-67
2023/04/01 03:49:36;;;;;;;;;11.60;11.40;;;;;;;;5051825;29;8789;-67
2023/04/01 03:52:09;;;;;;;;;7.00;7.00;;;;;;;;5065755;29;9510;-67
2023/04/01 03:54:39;;;;;;;;;11.00;10.80;;;;;;;;5048245;29;8842;-66
2023/04/01 03:57:10;;;;;;;;;8.75;8.75;;;;;;;;5032224;29;8809;-67
2023/04/01 03:59:41;;;;;;;;;12.75;12.75;;;;;;;;5033231;29;9909;-67
2023/04/01 04:02:12;;;;;;;;;9.60;8.80;;;;;;;;5017617;29;8811;-66
2023/04/01 04:04:46;;;;;;;;;15.40;15.40;;;;;;;;5033513;29;8799;-73
2023/04/01 04:07:18;;;;;;;;;23.20;23.20;;;;;;;;5047570;29;8814;-74
2023/04/01 04:10:06;;;;;;;;;12.80;12.80;;;;;;;;5020858;29;8794;-72
2023/04/01 04:12:37;;;;;;;;;11.00;11.00;;;;;;;;5033296;29;8802;-74
2023/04/01 04:15:09;;;;;;;;;12.00;12.00;;;;;;;;5017870;29;8828;-73
2023/04/01 04:17:41;;;;;;;;;13.00;13.00;;;;;;;;5033566;29;9536;-73
2023/04/01 04:20:12;;;;;;;;;13.40;11.60;;;;;;;;5048747;29;8789;-74
2023/04/01 04:22:44;;;;;;;;;10.60;10.60;;;;;;;;5032753;29;8806;-75
2023/04/01 04:25:15;;;;;;;;;10.60;10.60;;;;;;;;5048866;29;8901;-74
2023/04/01 04:27:47;;;;;;;;;17.00;17.00;;;;;;;;5018009;29;8798;-74
2023/04/01 04:30:19;;;;;;;;;11.60;11.60;;;;;;;;5033594;29;8813;-74
2023/04/01 04:32:51;;;;;;;;;6.00;6.00;;;;;;;;5017889;29;8794;-74
2023/04/01 04:35:22;;;;;;;;;12.00;12.00;;;;;;;;5048569;29;8794;-77
2023/04/01 04:37:54;;;;;;;;;13.80;13.80;;;;;;;;5032053;29;8964;-73
2023/04/01 04:40:25;;;;;;;;;21.00;21.00;;;;;;;;5033018;29;8813;-74
2023/04/01 04:42:56;;;;;;;;;13.00;13.00;;;;;;;;5032163;29;9579;-73
2023/04/01 04:45:28;;;;;;;;;13.80;13.40;;;;;;;;5033128;29;8968;-74
2023/04/01 04:48:01;;;;;;;;;10.60;8.40;;;;;;;;5018464;29;8798;-75
2023/04/01 04:50:34;;;;;;;;;11.80;11.80;;;;;;;;5017714;29;8798;-74
2023/04/01 04:53:05;;;;;;;;;7.80;7.80;;;;;;;;5033081;29;8782;-74
2023/04/01 04:55:37;;;;;;;;;11.80;11.40;;;;;;;;5032725;29;9576;-75
2023/04/01 04:58:27;;;;;;;;;10.40;9.80;;;;;;;;5033463;29;8813;-75
2023/04/01 05:01:05;;;;;;;;;12.60;12.60;;;;;;;;5032885;29;8826;-74
2023/04/01 05:03:37;;;;;;;;;13.60;13.60;;;;;;;;5047081;29;8932;-74
2023/04/01 05:06:11;;;;;;;;;9.60;9.60;;;;;;;;5033326;29;9610;-74
2023/04/01 05:08:44;;;;;;;;;14.60;13.80;;;;;;;;5035237;29;8821;-73
2023/04/01 05:11:17;;;;;;;;;16.00;16.00;;;;;;;;5051900;29;8804;-73
2023/04/01 05:13:50;;;;;;;;;16.00;16.00;;;;;;;;5051955;29;8826;-73
2023/04/01 05:16:21;;;;;;;;;23.00;22.60;;;;;;;;5035356;29;9550;-74
2023/04/01 05:19:11;;;;;;;;;19.80;19.80;;;;;;;;5038574;29;8924;-73
2023/04/01 05:21:42;;;;;;;;;15.00;15.00;;;;;;;;5036134;29;8869;-67
2023/04/01 05:24:14;;;;;;;;;22.40;21.80;;;;;;;;5051212;29;8806;-73
2023/04/01 05:27:04;;;;;;;;;29.20;28.20;;;;;;;;5032816;29;8832;-74
2023/04/01 05:29:35;;;;;;;;;24.40;24.40;;;;;;;;5015618;29;8791;-67
2023/04/01 05:32:10;;;;;;;;;20.00;19.80;;;;;;;;5030679;29;8800;-66
2023/04/01 05:34:41;;;;;;;;;17.75;16.75;;;;;;;;5046248;29;8804;-68
2023/04/01 05:37:12;;;;;;;;;16.80;15.80;;;;;;;;5036846;29;8840;-68
2023/04/01 05:39:44;;;;;;;;;23.80;22.40;;;;;;;;5065612;29;9629;-68
2023/04/01 05:42:15;;;;;;;;;22.50;22.50;;;;;;;;5048970;29;8826;-68
2023/04/01 05:44:46;;;;;;;;;19.80;17.60;;;;;;;;5049280;29;8832;-68
2023/04/01 05:47:35;;;;;;;;;23.20;23.20;;;;;;;;5049680;29;8827;-68
2023/04/01 05:50:06;;;;;;;;;27.00;25.25;;;;;;;;5049741;29;8806;-68
2023/04/01 05:52:55;;;;;;;;;30.40;29.80;;;;;;;;5065903;29;8813;-68
2023/04/01 05:55:27;;;;;;;;;29.00;28.60;;;;;;;;5031890;29;8846;-66
2023/04/01 05:57:58;;;;;;;;;22.25;22.25;;;;;;;;5043306;29;8892;-68
2023/04/01 06:00:29;;;;;;;;;34.75;31.00;;;;;;;;5050693;29;8797;-68
2023/04/01 06:03:03;;;;;;;;;30.00;27.80;;;;;;;;5050353;29;8809;-68
2023/04/01 06:05:39;;;;;;;;;18.20;18.20;;;;;;;;5051259;29;8833;-68
2023/04/01 06:08:30;;;;;;;;;17.60;17.60;;;;;;;;5053531;29;8816;-68
2023/04/01 06:11:01;;;;;;;;;18.40;16.00;;;;;;;;5050770;29;8782;-68
2023/04/01 06:13:35;;;;;;;;;20.50;17.50;;;;;;;;5019806;29;8869;-68
2023/04/01 06:16:09;;;;;;;;;24.40;23.20;;;;;;;;5050451;29;8826;-68
2023/04/01 06:18:55;;;;;;;;;23.00;22.00;;;;;;;;5049997;29;8838;-68
2023/04/01 06:21:34;;;;;;;;;23.20;23.20;;;;;;;;5049803;29;8881;-68
2023/04/01 06:24:21;;;;;;;;;21.60;21.40;;;;;;;;5050964;29;8865;-67
2023/04/01 06:27:05;;;;;;;;;19.20;18.20;;;;;;;;5049986;29;8814;-68
2023/04/01 06:29:53;;;;;;;;;18.40;18.40;;;;;;;;5047507;29;8834;-68
2023/04/01 06:32:50;;;;;;;;;18.60;18.60;;;;;;;;5034270;29;8809;-67
2023/04/01 06:35:27;;;;;;;;;16.00;16.00;;;;;;;;5048227;29;8790;-68
2023/04/01 06:38:11;;;;;;;;;17.20;17.20;;;;;;;;5041479;29;8839;-68
2023/04/01 06:40:45;;;;;;;;;15.80;15.80;;;;;;;;5049816;29;8793;-67
2023/04/01 06:43:19;;;;;;;;;14.60;14.60;;;;;;;;5066918;29;8794;-67
2023/04/01 06:46:18;;;;;;;;;14.40;14.00;;;;;;;;5050212;29;8817;-67
2023/04/01 06:49:10;;;;;;;;;14.80;14.80;;;;;;;;5067149;29;9603;-67
2023/04/01 06:52:02;;;;;;;;;17.60;17.00;;;;;;;;5067090;29;8806;-68
2023/04/01 06:55:10;;;;;;;;;15.80;15.80;;;;;;;;5066520;29;8958;-68
2023/04/01 06:58:13;;;;;;;;;16.00;16.00;;;;;;;;5060235;29;9550;-69
2023/04/01 07:00:46;;;;;;;;;15.80;15.80;;;;;;;;5049404;29;9587;-65
2023/04/01 07:03:20;;;;;;;;;8.60;8.60;;;;;;;;5034573;29;8786;-68
2023/04/01 07:05:54;;;;;;;;;19.60;18.60;;;;;;;;5049630;29;8821;-66
2023/04/01 07:08:27;;;;;;;;;23.20;22.00;;;;;;;;5049091;29;8828;-66
2023/04/01 07:11:03;;;;;;;;;18.20;17.60;;;;;;;;5018704;29;8823;-66
2023/04/01 07:13:54;;;;;;;;;15.80;15.80;;;;;;;;5036367;29;8872;-68
2023/04/01 07:16:40;;;;;;;;;22.00;21.40;;;;;;;;5049000;29;8857;-68
2023/04/01 07:19:38;;;;;;;;;19.00;19.00;;;;;;;;5048405;29;8825;-68
2023/04/01 07:22:14;;;;;;;;;22.40;22.40;;;;;;;;5019207;29;8881;-66
2023/04/01 07:25:25;;;;;;;;;19.80;19.60;;;;;;;;5066035;29;9542;-65
2023/04/01 07:28:16;;;;;;;;;17.60;17.60;;;;;;;;5047794;29;8778;-68
2023/04/01 07:31:09;;;;;;;;;7.40;7.40;;;;;;;;5033297;29;8833;-68
2023/04/01 07:33:49;;;;;;;;;15.60;15.00;;;;;;;;5033455;29;9016;-68
2023/04/01 07:36:25;;;;;;;;;17.40;17.40;;;;;;;;5014773;29;8802;-66
2023/04/01 07:38:57;;;;;;;;;15.00;14.60;;;;;;;;5019407;29;8794;-66
2023/04/01 07:42:09;;;;;;;;;14.20;14.20;;;;;;;;5019625;29;8962;-66
2023/04/01 07:44:40;;;;;;;;;15.80;15.80;;;;;;;;5047285;29;8853;-68
2023/04/01 07:47:17;;;;;;;;;14.40;14.40;;;;;;;;5032721;29;8910;-68
2023/04/01 07:49:55;;;;;;;;;19.40;18.60;;;;;;;;5033128;29;8801;-66
2023/04/01 07:52:52;;;;;;;;;14.00;13.40;;;;;;;;5048716;29;8948;-68
2023/04/01 07:55:27;;;;;;;;;21.40;21.40;;;;;;;;5063833;29;8810;-68
2023/04/01 07:58:06;;;;;;;;;14.80;14.80;;;;;;;;5048649;29;8793;-65
2023/04/01 08:00:58;;;;;;;;;16.60;16.40;;;;;;;;5064839;29;8865;-66
2023/04/01 08:03:40;;;;;;;;;14.00;14.00;;;;;;;;5047867;29;8821;-66
2023/04/01 08:06:36;;;;;;;;;13.00;12.40;;;;;;;;5041526;29;8825;-69
2023/04/01 08:09:35;;;;;;;;;9.00;9.00;;;;;;;;5050932;29;8805;-68
2023/04/01 08:12:37;;;;;;;;;7.80;7.80;;;;;;;;5051234;29;8793;-68
2023/04/01 08:15:33;;;;;;;;;14.40;14.40;;;;;;;;5035322;29;8861;-66
2023/04/01 08:18:46;;;;;;;;;15.00;14.60;;;;;;;;5054848;29;8925;-66
2023/04/01 08:21:42;;;;;;;;;12.40;12.40;;;;;;;;5047901;29;8791;-68
2023/04/01 08:24:29;;;;;;;;;20.40;20.20;;;;;;;;5033295;29;8794;-66
2023/04/01 08:27:03;;;;;;;;;13.00;13.00;;;;;;;;5038787;29;8822;-66
2023/04/01 08:29:42;;;;;;;;;9.20;9.20;;;;;;;;5048286;29;8822;-66
2023/04/01 08:32:22;;;;;;;;;11.60;10.20;;;;;;;;5036103;29;8870;-66
2023/04/01 08:35:16;;;;;;;;;15.60;15.60;;;;;;;;5064687;29;8806;-67
2023/04/01 08:37:49;;;;;;;;;13.40;13.00;;;;;;;;5043271;29;8798;-66
2023/04/01 08:40:41;;;;;;;;;16.40;16.40;;;;;;;;5050282;29;8810;-66
2023/04/01 08:43:35;;;;;;;;;14.00;13.80;;;;;;;;5018438;29;8949;-66
2023/04/01 08:46:27;;;;;;;;;15.80;15.20;;;;;;;;5026370;29;9590;-68
2023/04/01 08:49:07;;;;;;;;;12.00;12.00;;;;;;;;5037514;29;9506;-66
2023/04/01 08:51:46;;;;;;;;;14.60;14.60;;;;;;;;5069196;29;8789;-66
2023/04/01 08:54:36;;;;;;;;;20.40;19.60;;;;;;;;5051802;29;8824;-66
2023/04/01 08:57:08;;;;;;;;;20.00;20.00;;;;;;;;5050279;29;8798;-66
2023/04/01 09:00:03;;;;;;;;;17.00;17.00;;;;;;;;5067539;29;8790;-67
2023/04/01 09:02:57;;;;;;;;;7.00;7.00;;;;;;;;5068337;29;8810;-67
2023/04/01 09:05:42;;;;;;;;;12.80;12.80;;;;;;;;5051289;29;8845;-68
2023/04/01 09:08:26;;;;;;;;;17.00;16.40;;;;;;;;5052109;29;8806;-67
2023/04/01 09:11:05;;;;;;;;;24.00;24.00;;;;;;;;5052408;29;9515;-68
2023/04/01 09:13:55;;;;;;;;;19.60;19.60;;;;;;;;5049684;29;8864;-69
2023/04/01 09:16:44;;;;;;;;;16.50;15.50;;;;;;;;5068387;29;8798;-68
2023/04/01 09:19:33;;;;;;;;;9.20;9.20;;;;;;;;5054273;29;8778;-68
2023/04/01 09:22:21;;;;;;;;;14.00;14.00;;;;;;;;5051253;29;8810;-67
2023/04/01 09:25:08;;;;;;;;;14.20;14.20;;;;;;;;5066995;29;8801;-69
2023/04/01 09:28:05;;;;;;;;;8.80;8.80;;;;;;;;5036036;29;8794;-66
2023/04/01 09:30:55;;;;;;;;;13.00;13.00;;;;;;;;5051158;29;8786;-66
2023/04/01 09:33:29;;;;;;;;;21.00;21.00;;;;;;;;5051318;29;8853;-67
2023/04/01 09:36:00;;;;;;;;;15.80;15.60;;;;;;;;5035178;29;8943;-69
2023/04/01 09:38:49;;;;;;;;;6.75;6.75;;;;;;;;5051505;29;8913;-69
2023/04/01 09:41:35;;;;;;;;;15.60;15.60;;;;;;;;5067959;29;8766;-69
2023/04/01 09:44:29;;;;;;;;;15.80;15.80;;;;;;;;5048804;29;8850;-68
2023/04/01 09:47:27;;;;;;;;;17.00;16.80;;;;;;;;5050458;29;8826;-68
2023/04/01 09:50:16;;;;;;;;;15.00;15.00;;;;;;;;5051255;29;8790;-68
2023/04/01 09:53:06;;;;;;;;;16.60;16.60;;;;;;;;5067468;29;8813;-67
2023/04/01 09:55:40;;;;;;;;;27.00;25.40;;;;;;;;5050675;29;8885;-67
2023/04/01 09:58:30;;;;;;;;;18.00;18.00;;;;;;;;5050340;29;9554;-68
2023/04/01 10:01:27;;;;;;;;;21.40;20.20;;;;;;;;5028578;29;8798;-68
2023/04/01 10:04:06;;;;;;;;;16.00;16.00;;;;;;;;5035030;29;8782;-69
2023/04/01 10:06:47;;;;;;;;;23.00;23.00;;;;;;;;5050362;29;9568;-68
2023/04/01 10:09:28;;;;;;;;;21.20;21.20;;;;;;;;5035035;29;8801;-68
2023/04/01 10:12:02;;;;;;;;;23.80;23.60;;;;;;;;5050528;29;8813;-69
2023/04/01 10:14:56;;;;;;;;;18.40;18.20;;;;;;;;5050105;29;8805;-68
2023/04/01 10:18:04;;;;;;;;;28.00;27.00;;;;;;;;5067108;29;8936;-68
2023/04/01 10:20:39;;;;;;;;;28.80;26.00;;;;;;;;5050088;29;9599;-68
2023/04/01 10:23:13;;;;;;;;;21.80;21.80;;;;;;;;5066962;29;8847;-68
2023/04/01 10:25:57;;;;;;;;;18.80;18.60;;;;;;;;5067460;29;8963;-68
2023/04/01 10:28:47;;;;;;;;;17.60;17.60;;;;;;;;5050520;29;9632;-69
2023/04/01 10:31:41;;;;;;;;;19.20;19.20;;;;;;;;5061804;29;8814;-69
2023/04/01 10:34:19;;;;;;;;;24.20;22.80;;;;;;;;5053332;29;8800;-68
2023/04/01 10:36:51;;;;;;;;;15.20;15.20;;;;;;;;5086412;29;8799;-68
2023/04/01 10:39:43;;;;;;;;;26.80;25.40;;;;;;;;5082923;29;8779;-68
2023/04/01 10:42:45;;;;;;;;;25.60;25.40;;;;;;;;5050531;29;8877;-68
2023/04/01 10:45:45;;;;;;;;;23.40;22.80;;;;;;;;5036050;29;8847;-68
2023/04/01 10:48:22;;;;;;;;;25.60;24.60;;;;;;;;5049801;29;9639;-68
2023/04/01 10:51:13;;;;;;;;;22.80;21.80;;;;;;;;5048631;29;8821;-69
2023/04/01 10:53:56;;;;;;;;;24.20;23.80;;;;;;;;5049139;29;8818;-68
2023/04/01 10:56:57;;;;;;;;;21.80;21.80;;;;;;;;5050099;29;9688;-68
2023/04/01 10:59:33;;;;;;;;;15.60;14.80;;;;;;;;5066193;29;8861;-68
2023/04/01 11:02:41;;;;;;;;;15.00;15.00;;;;;;;;5065976;29;8996;-68
2023/04/01 11:05:49;;;;;;;;;20.00;19.20;;;;;;;;5066244;29;8872;-68
2023/04/01 11:08:28;;;;;;;;;19.00;19.00;;;;;;;;5049186;29;8877;-68
2023/04/01 11:11:11;;;;;;;;;13.40;13.40;;;;;;;;5049767;29;8810;-68
2023/04/01 11:13:43;;;;;;;;;22.80;22.80;;;;;;;;5048911;29;8813;-68
2023/04/01 11:16:17;;;;;;;;;19.00;18.60;;;;;;;;5049113;29;8945;-68
2023/04/01 11:19:07;;;;;;;;;13.20;13.20;;;;;;;;5018201;29;8802;-69
2023/04/01 11:21:56;;;;;;;;;18.80;18.00;;;;;;;;5048689;29;8785;-70
2023/04/01 11:24:50;;;;;;;;;14.00;14.00;;;;;;;;5049517;29;8808;-69
2023/04/01 11:27:50;;;;;;;;;19.80;19.80;;;;;;;;5060608;29;8814;-70
2023/04/01 11:30:37;;;;;;;;;15.80;15.40;;;;;;;;5019378;29;8821;-70
2023/04/01 11:33:16;;;;;;;;;20.60;20.60;;;;;;;;5034113;29;8786;-70
2023/04/01 11:36:06;;;;;;;;;17.00;17.00;;;;;;;;5051498;29;9002;-70
2023/04/01 11:39:01;;;;;;;;;18.80;17.60;;;;;;;;5066022;29;8822;-69
2023/04/01 11:41:52;;;;;;;;;22.20;22.20;;;;;;;;5027157;29;8947;-70
2023/04/01 11:45:02;;;;;;;;;20.00;19.00;;;;;;;;5065848;29;8802;-71
2023/04/01 11:47:43;;;;;;;;;27.80;26.60;;;;;;;;5028698;29;8809;-70
2023/04/01 11:50:14;;;;;;;;;18.00;17.60;;;;;;;;5048511;29;8821;-70
2023/04/01 11:53:10;;;;;;;;;21.40;21.40;;;;;;;;5048857;29;8785;-70
2023/04/01 11:55:44;;;;;;;;;16.80;16.80;;;;;;;;5065904;29;8865;-70
2023/04/01 11:58:25;;;;;;;;;15.60;15.00;;;;;;;;5049351;29;8940;-70
2023/04/01 12:01:15;;;;;;;;;17.20;17.20;;;;;;;;5049408;29;8825;-70
2023/04/01 12:04:05;;;;;;;;;13.60;13.60;;;;;;;;5049722;29;8782;-70
2023/04/01 12:06:35;;;;;;;;;12.20;12.20;;;;;;;;5033532;29;8906;-71
2023/04/01 12:09:34;;;;;;;;;16.00;14.60;;;;;;;;5065436;29;8782;-69
2023/04/01 12:12:18;;;;;;;;;17.40;17.40;;;;;;;;5048069;29;9509;-71
2023/04/01 12:15:26;;;;;;;;;14.60;14.60;;;;;;;;5035085;29;8786;-71
2023/04/01 12:18:13;;;;;;;;;28.40;25.80;;;;;;;;5065836;29;9588;-70
2023/04/01 12:20:57;;;;;;;;;29.20;28.80;;;;;;;;5065516;29;8786;-71
2023/04/01 12:23:31;;;;;;;;;24.20;22.80;;;;;;;;5048464;29;9531;-71
2023/04/01 12:26:10;;;;;;;;;15.20;15.20;;;;;;;;5064882;29;8806;-70
2023/04/01 12:29:10;;;;;;;;;16.20;15.80;;;;;;;;5065026;29;8814;-70
2023/04/01 12:31:50;;;;;;;;;16.40;16.40;;;;;;;;5052306;29;8837;-70
2023/04/01 12:34:40;;;;;;;;;16.00;16.00;;;;;;;;5033415;29;8794;-70
2023/04/01 12:37:10;;;;;;;;;12.40;12.40;;;;;;;;5032700;29;8849;-70
2023/04/01 12:39:51;;;;;;;;;15.25;15.00;;;;;;;;5048336;29;8821;-71
2023/04/01 12:42:35;;;;;;;;;14.00;14.00;;;;;;;;5063961;29;8786;-70
2023/04/01 12:45:12;;;;;;;;;18.80;18.80;;;;;;;;5048300;29;8797;-70
2023/04/01 12:47:46;;;;;;;;;23.60;23.20;;;;;;;;5048205;29;9004;-70
2023/04/01 12:50:37;;;;;;;;;17.60;17.60;;;;;;;;5048159;29;8806;-70
2023/04/01 12:53:08;;;;;;;;;14.00;14.00;;;;;;;;5065159;29;8790;-70
2023/04/01 12:55:40;;;;;;;;;14.00;14.00;;;;;;;;5047850;29;9617;-70
2023/04/01 12:58:20;;;;;;;;;15.00;15.00;;;;;;;;5047382;29;8822;-70
2023/04/01 13:01:09;;;;;;;;;14.00;14.00;;;;;;;;5048313;29;8834;-70
2023/04/01 13:03:46;;;;;;;;;11.40;11.40;;;;;;;;5065182;29;8789;-71
2023/04/01 13:06:33;;;;;;;;;11.20;11.20;;;;;;;;5048507;29;8828;-70
2023/04/01 13:09:17;;;;;;;;;11.40;11.40;;;;;;;;5048780;29;8808;-71
2023/04/01 13:12:00;;;;;;;;;13.00;13.00;;;;;;;;5048664;29;8805;-70
2023/04/01 13:14:44;;;;;;;;;14.60;14.60;;;;;;;;5065279;29;8976;-70
2023/04/01 13:17:37;;;;;;;;;12.00;12.00;;;;;;;;5052083;29;9533;-69
2023/04/01 13:20:24;;;;;;;;;16.40;15.40;;;;;;;;5066290;29;8805;-71
2023/04/01 13:23:01;;;;;;;;;16.60;16.60;;;;;;;;5069142;29;8970;-70
2023/04/01 13:26:00;;;;;;;;;37.20;34.20;;;;;;;;5063491;29;8825;-69
2023/04/01 13:28:40;;;;;;;;;12.60;12.60;;;;;;;;5068970;29;8790;-69
2023/04/01 13:31:45;;;;;;;;;15.80;15.40;;;;;;;;5063696;29;8861;-69
2023/04/01 13:34:35;;;;;;;;;11.20;11.20;;;;;;;;5034639;29;8822;-70
2023/04/01 13:37:11;;;;;;;;;12.60;12.60;;;;;;;;5081106;29;8809;-70
2023/04/01 13:39:57;;;;;;;;;33.40;30.20;;;;;;;;5084757;29;8860;-70
2023/04/01 13:42:38;;;;;;;;;28.80;26.20;;;;;;;;5080631;29;8790;-69
2023/04/01 13:45:17;;;;;;;;;26.00;25.20;;;;;;;;5079210;29;8840;-69
2023/04/01 13:47:51;;;;;;;;;21.80;21.60;;;;;;;;5080022;29;8806;-70
2023/04/01 13:50:49;;;;;;;;;24.40;24.40;;;;;;;;5063682;29;8817;-69
2023/04/01 13:53:29;;;;;;;;;25.80;25.80;;;;;;;;5088260;29;8814;-70
2023/04/01 13:56:03;;;;;;;;;18.00;17.80;;;;;;;;5073165;29;8897;-69
2023/04/01 13:58:34;;;;;;;;;25.60;24.80;;;;;;;;5084484;29;8782;-70
2023/04/01 14:01:10;;;;;;;;;21.25;21.25;;;;;;;;5064606;29;8805;-70
2023/04/01 14:03:59;;;;;;;;;20.80;20.60;;;;;;;;5081958;29;8818;-69
2023/04/01 14:07:01;;;;;;;;;25.20;25.00;;;;;;;;5077500;29;8817;-69
2023/04/01 14:09:49;;;;;;;;;25.00;24.80;;;;;;;;5061980;29;8877;-68
2023/04/01 14:12:26;;;;;;;;;28.20;28.20;;;;;;;;5078920;29;8790;-69
2023/04/01 14:15:03;;;;;;;;;19.40;19.40;;;;;;;;5079582;29;8790;-69
2023/04/01 14:17:35;;;;;;;;;17.20;15.40;;;;;;;;5079992;29;8798;-70
2023/04/01 14:20:06;;;;;;;;;20.40;20.40;;;;;;;;5080275;29;8838;-69
2023/04/01 14:23:03;;;;;;;;;19.00;18.00;;;;;;;;5047396;29;8783;-70
2023/04/01 14:26:01;;;;;;;;;17.00;17.00;;;;;;;;5054742;29;8829;-70
2023/04/01 14:28:47;;;;;;;;;17.00;17.00;;;;;;;;5051407;29;8922;-70
2023/04/01 14:31:17;;;;;;;;;16.00;15.20;;;;;;;;5067545;29;8818;-69
2023/04/01 14:34:11;;;;;;;;;14.50;14.25;;;;;;;;5067852;29;8794;-69
2023/04/01 14:37:01;;;;;;;;;13.80;13.80;;;;;;;;5043762;29;8818;-69
2023/04/01 14:39:50;;;;;;;;;12.40;12.40;;;;;;;;5068423;29;9633;-69
2023/04/01 14:42:27;;;;;;;;;13.60;13.40;;;;;;;;5050609;29;8818;-70
2023/04/01 14:45:17;;;;;;;;;13.00;13.00;;;;;;;;5050107;29;8830;-70
2023/04/01 14:48:16;;;;;;;;;11.00;11.00;;;;;;;;5047307;29;8851;-69
2023/04/01 14:50:50;;;;;;;;;12.80;12.80;;;;;;;;5061484;29;8817;-69
2023/04/01 14:53:29;;;;;;;;;11.40;11.40;;;;;;;;5064958;29;8844;-69
2023/04/01 14:56:02;;;;;;;;;13.20;12.00;;;;;;;;5065457;29;8814;-69
2023/04/01 14:58:47;;;;;;;;;13.00;13.00;;;;;;;;5065473;29;8824;-69
2023/04/01 15:01:58;;;;;;;;;13.80;13.80;;;;;;;;5064809;29;8822;-69
2023/04/01 15:04:44;;;;;;;;;16.60;16.60;;;;;;;;5065129;29;8873;-69
2023/04/01 15:07:18;;;;;;;;;15.00;15.00;;;;;;;;5044422;29;8831;-69
2023/04/01 15:10:03;;;;;;;;;17.80;17.80;;;;;;;;5045714;29;8922;-69
2023/04/01 15:13:00;;;;;;;;;12.80;12.80;;;;;;;;5045299;29;8780;-69
2023/04/01 15:15:40;;;;;;;;;12.60;12.60;;;;;;;;5024069;29;9703;-70
2023/04/01 15:18:19;;;;;;;;;12.80;12.80;;;;;;;;5048615;29;8904;-69
2023/04/01 15:20:57;;;;;;;;;23.20;21.80;;;;;;;;5067987;29;8816;-69
2023/04/01 15:23:54;;;;;;;;;20.20;20.20;;;;;;;;5048519;29;8794;-69
2023/04/01 15:26:28;;;;;;;;;13.40;13.40;;;;;;;;5042481;29;8896;-68
2023/04/01 15:29:18;;;;;;;;;22.80;22.40;;;;;;;;5047867;29;9601;-70
2023/04/01 15:31:52;;;;;;;;;61.80;49.60;;;;;;;;5047877;29;8948;-68
2023/04/01 15:34:27;;;;;;;;;22.60;22.60;;;;;;;;5064599;29;8818;-68
2023/04/01 15:37:04;;;;;;;;;18.60;18.00;;;;;;;;5060737;29;8969;-68
2023/04/01 15:39:54;;;;;;;;;14.40;14.40;;;;;;;;5028231;29;9690;-68
2023/04/01 15:42:31;;;;;;;;;20.20;19.80;;;;;;;;5065175;29;8821;-67
2023/04/01 15:45:16;;;;;;;;;13.00;13.00;;;;;;;;5049258;29;8816;-67
2023/04/01 15:47:59;;;;;;;;;13.40;12.60;;;;;;;;5048841;29;8821;-67
2023/04/01 15:50:31;;;;;;;;;16.00;15.40;;;;;;;;5048530;29;8810;-67
2023/04/01 15:53:18;;;;;;;;;33.40;32.60;;;;;;;;5048924;29;8949;-67
2023/04/01 15:56:08;;;;;;;;;23.60;23.20;;;;;;;;5048881;29;8826;-68